sensor_id;sensor_type;location;lat;lon;timestamp;temperature;humidity
54846;DHT22;53889;50.084;8.646;2023-10-13T00:01:20;17.10;99.90
54846;DHT22;53889;50.084;8.646;2023-10-13T00:03:47;17.10;99.90
54846;DHT22;53889;50.084;8.646;2023-10-13T00:06:14;17.00;99.90
54846;DHT22;53889;50.084;8.646;2023-10-13T00:08:41;17.10;99.90
54846;DHT22;53889;50.084;8.646;2023-10-13T00:11:13;17.10;99.90
54846;DHT22;53889;50.084;8.646;2023-10-13T00:13:44;17.10;99.90
54846;DHT22;53889;50.084;8.646;2023-10-13T00:16:16;17.10;99.90
54846;DHT22;53889;50.084;8.646;2023-10-13T00:18:47;17.10;99.90
54846;DHT22;53889;50.084;8.646;2023-10-13T00:21:14;17.10;99.90
54846;DHT22;53889;50.084;8.646;2023-10-13T00:23:46;17.10;99.90
54846;DHT22;53889;50.084;8.646;2023-10-13T00:26:20;17.00;99.90
54846;DHT22;53889;50.084;8.646;2023-10-13T00:28:52;17.00;99.90
54846;DHT22;53889;50.084;8.646;2023-10-13T00:31:34;16.90;99.90
54846;DHT22;53889;50.084;8.646;2023-10-13T00:34:04;16.90;99.90
54846;DHT22;53889;50.084;8.646;2023-10-13T00:36:44;16.80;99.90
54846;DHT22;53889;50.084;8.646;2023-10-13T00:39:14;16.60;99.90
54846;DHT22;53889;50.084;8.646;2023-10-13T00:41:43;16.50;99.90
54846;DHT22;53889;50.084;8.646;2023-10-13T00:44:18;16.50;99.90
54846;DHT22;53889;50.084;8.646;2023-10-13T00:46:51;16.60;99.90
54846;DHT22;53889;50.084;8.646;2023-10-13T00:49:21;16.70;99.90
54846;DHT22;53889;50.084;8.646;2023-10-13T00:51:49;16.80;99.90
54846;DHT22;53889;50.084;8.646;2023-10-13T00:54:15;16.80;99.90
54846;DHT22;53889;50.084;8.646;2023-10-13T00:56:46;16.80;99.90
54846;DHT22;53889;50.084;8.646;2023-10-13T00:59:15;16.70;99.90
54846;DHT22;53889;50.084;8.646;2023-10-13T01:01:42;16.70;99.90
54846;DHT22;53889;50.084;8.646;2023-10-13T01:04:10;16.80;99.90
54846;DHT22;53889;50.084;8.646;2023-10-13T01:06:38;16.80;99.90
54846;DHT22;53889;50.084;8.646;2023-10-13T01:09:06;16.70;99.90
54846;DHT22;53889;50.084;8.646;2023-10-13T01:11:43;16.60;99.90
54846;DHT22;53889;50.084;8.646;2023-10-13T01:14:11;16.80;99.90
54846;DHT22;53889;50.084;8.646;2023-10-13T01:16:40;16.80;99.90
54846;DHT22;53889;50.084;8.646;2023-10-13T01:19:10;16.90;99.90
54846;DHT22;53889;50.084;8.646;2023-10-13T01:21:38;16.90;99.90
54846;DHT22;53889;50.084;8.646;2023-10-13T01:24:08;16.70;99.90
54846;DHT22;53889;50.084;8.646;2023-10-13T01:26:36;16.80;99.90
54846;DHT22;53889;50.084;8.646;2023-10-13T01:29:05;16.90;99.90
54846;DHT22;53889;50.084;8.646;2023-10-13T01:31:40;16.90;99.90
54846;DHT22;53889;50.084;8.646;2023-10-13T01:34:12;17.00;99.90
54846;DHT22;53889;50.084;8.646;2023-10-13T01:36:40;17.00;99.90
54846;DHT22;53889;50.084;8.646;2023-10-13T01:39:09;17.00;99.90
54846;DHT22;53889;50.084;8.646;2023-10-13T01:41:42;17.00;99.90
54846;DHT22;53889;50.084;8.646;2023-10-13T01:44:08;16.90;99.90
54846;DHT22;53889;50.084;8.646;2023-10-13T01:46:37;17.00;99.90
54846;DHT22;53889;50.084;8.646;2023-10-13T01:49:03;17.00;99.90
54846;DHT22;53889;50.084;8.646;2023-10-13T01:51:29;17.00;99.90
54846;DHT22;53889;50.084;8.646;2023-10-13T01:53:56;17.10;99.90
54846;DHT22;53889;50.084;8.646;2023-10-13T01:56:25;17.10;99.90
54846;DHT22;53889;50.084;8.646;2023-10-13T01:58:55;17.10;99.90
54846;DHT22;53889;50.084;8.646;2023-10-13T02:01:21;17.20;99.90
54846;DHT22;53889;50.084;8.646;2023-10-13T02:03:53;17.10;99.90
54846;DHT22;53889;50.084;8.646;2023-10-13T02:06:28;17.20;99.90
54846;DHT22;53889;50.084;8.646;2023-10-13T02:08:59;17.10;99.90
54846;DHT22;53889;50.084;8.646;2023-10-13T02:11:39;18.30;99.90
54846;DHT22;53889;50.084;8.646;2023-10-13T02:14:04;17.10;99.90
54846;DHT22;53889;50.084;8.646;2023-10-13T02:16:32;17.10;99.90
54846;DHT22;53889;50.084;8.646;2023-10-13T02:18:58;17.10;99.90
54846;DHT22;53889;50.084;8.646;2023-10-13T02:21:30;17.10;99.90
54846;DHT22;53889;50.084;8.646;2023-10-13T02:23:57;17.10;99.90
54846;DHT22;53889;50.084;8.646;2023-10-13T02:26:27;17.10;99.90
54846;DHT22;53889;50.084;8.646;2023-10-13T02:28:58;17.10;99.90
54846;DHT22;53889;50.084;8.646;2023-10-13T02:31:27;17.10;99.90
54846;DHT22;53889;50.084;8.646;2023-10-13T02:33:53;17.10;99.90
54846;DHT22;53889;50.084;8.646;2023-10-13T02:36:20;17.10;99.90
54846;DHT22;53889;50.084;8.646;2023-10-13T02:38:48;17.10;99.90
54846;DHT22;53889;50.084;8.646;2023-10-13T02:41:18;17.10;99.90
54846;DHT22;53889;50.084;8.646;2023-10-13T02:43:51;17.20;99.90
54846;DHT22;53889;50.084;8.646;2023-10-13T02:46:19;17.10;99.90
54846;DHT22;53889;50.084;8.646;2023-10-13T02:48:48;17.10;99.90
54846;DHT22;53889;50.084;8.646;2023-10-13T02:51:19;17.10;99.90
54846;DHT22;53889;50.084;8.646;2023-10-13T02:53:50;17.10;99.90
54846;DHT22;53889;50.084;8.646;2023-10-13T02:56:18;16.80;99.90
54846;DHT22;53889;50.084;8.646;2023-10-13T02:58:47;16.90;99.90
54846;DHT22;53889;50.084;8.646;2023-10-13T03:01:20;17.00;99.90
54846;DHT22;53889;50.084;8.646;2023-10-13T03:03:53;16.90;99.90
54846;DHT22;53889;50.084;8.646;2023-10-13T03:06:20;16.90;99.90
54846;DHT22;53889;50.084;8.646;2023-10-13T03:08:50;17.00;99.90
54846;DHT22;53889;50.084;8.646;2023-10-13T03:11:17;16.90;99.90
54846;DHT22;53889;50.084;8.646;2023-10-13T03:13:48;16.80;99.90
54846;DHT22;53889;50.084;8.646;2023-10-13T03:16:14;16.90;99.90
54846;DHT22;53889;50.084;8.646;2023-10-13T03:18:47;17.00;99.90
54846;DHT22;53889;50.084;8.646;2023-10-13T03:21:20;17.00;99.90
54846;DHT22;53889;50.084;8.646;2023-10-13T03:23:59;17.00;99.90
54846;DHT22;53889;50.084;8.646;2023-10-13T03:26:33;17.00;99.90
54846;DHT22;53889;50.084;8.646;2023-10-13T03:29:01;17.00;99.90
54846;DHT22;53889;50.084;8.646;2023-10-13T03:31:29;17.00;99.90
54846;DHT22;53889;50.084;8.646;2023-10-13T03:34:04;17.00;99.90
54846;DHT22;53889;50.084;8.646;2023-10-13T03:36:31;17.00;99.90
54846;DHT22;53889;50.084;8.646;2023-10-13T03:39:15;17.00;99.90
54846;DHT22;53889;50.084;8.646;2023-10-13T03:41:42;16.90;99.90
54846;DHT22;53889;50.084;8.646;2023-10-13T03:44:10;16.80;99.90
54846;DHT22;53889;50.084;8.646;2023-10-13T03:46:43;16.80;99.90
54846;DHT22;53889;50.084;8.646;2023-10-13T03:49:14;16.90;99.90
54846;DHT22;53889;50.084;8.646;2023-10-13T03:51:47;16.80;99.90
54846;DHT22;53889;50.084;8.646;2023-10-13T03:54:14;16.80;99.90
54846;DHT22;53889;50.084;8.646;2023-10-13T03:56:42;16.70;99.90
54846;DHT22;53889;50.084;8.646;2023-10-13T03:59:11;16.70;99.90
54846;DHT22;53889;50.084;8.646;2023-10-13T04:01:44;16.80;99.90
54846;DHT22;53889;50.084;8.646;2023-10-13T04:04:13;16.80;99.90
54846;DHT22;53889;50.084;8.646;2023-10-13T04:06:42;16.90;99.90
54846;DHT22;53889;50.084;8.646;2023-10-13T04:09:39;16.90;99.90
54846;DHT22;53889;50.084;8.646;2023-10-13T04:12:34;16.90;99.90
54846;DHT22;53889;50.084;8.646;2023-10-13T04:15:18;17.00;99.90
54846;DHT22;53889;50.084;8.646;2023-10-13T04:17:48;17.00;99.90
54846;DHT22;53889;50.084;8.646;2023-10-13T04:20:16;17.00;99.90
54846;DHT22;53889;50.084;8.646;2023-10-13T04:22:59;17.00;99.90
54846;DHT22;53889;50.084;8.646;2023-10-13T04:25:47;17.00;99.90
54846;DHT22;53889;50.084;8.646;2023-10-13T04:28:32;16.90;99.90
54846;DHT22;53889;50.084;8.646;2023-10-13T04:31:03;16.90;99.90
54846;DHT22;53889;50.084;8.646;2023-10-13T04:33:49;16.80;99.90
54846;DHT22;53889;50.084;8.646;2023-10-13T04:36:19;16.40;99.90
54846;DHT22;53889;50.084;8.646;2023-10-13T04:39:12;16.90;99.90
54846;DHT22;53889;50.084;8.646;2023-10-13T04:41:54;16.90;99.90
54846;DHT22;53889;50.084;8.646;2023-10-13T04:44:25;16.90;99.90
54846;DHT22;53889;50.084;8.646;2023-10-13T04:47:09;16.80;99.90
54846;DHT22;53889;50.084;8.646;2023-10-13T04:49:45;16.80;99.90
54846;DHT22;53889;50.084;8.646;2023-10-13T04:52:25;16.80;99.90
54846;DHT22;53889;50.084;8.646;2023-10-13T04:55:17;16.70;99.90
54846;DHT22;53889;50.084;8.646;2023-10-13T04:57:59;16.80;99.90
54846;DHT22;53889;50.084;8.646;2023-10-13T05:00:36;16.80;99.90
54846;DHT22;53889;50.084;8.646;2023-10-13T05:03:21;16.80;99.90
54846;DHT22;53889;50.084;8.646;2023-10-13T05:06:18;16.80;99.90
54846;DHT22;53889;50.084;8.646;2023-10-13T05:09:03;16.80;99.90
54846;DHT22;53889;50.084;8.646;2023-10-13T05:11:48;16.90;99.90
54846;DHT22;53889;50.084;8.646;2023-10-13T05:14:33;16.90;99.90
54846;DHT22;53889;50.084;8.646;2023-10-13T05:17:17;16.90;99.90
54846;DHT22;53889;50.084;8.646;2023-10-13T05:20:01;16.90;99.90
54846;DHT22;53889;50.084;8.646;2023-10-13T05:22:45;17.00;99.90
54846;DHT22;53889;50.084;8.646;2023-10-13T05:25:34;17.00;99.90
54846;DHT22;53889;50.084;8.646;2023-10-13T05:28:19;17.00;99.90
54846;DHT22;53889;50.084;8.646;2023-10-13T05:31:04;16.90;99.90
54846;DHT22;53889;50.084;8.646;2023-10-13T05:33:48;16.90;99.90
54846;DHT22;53889;50.084;8.646;2023-10-13T05:36:33;16.80;99.90
54846;DHT22;53889;50.084;8.646;2023-10-13T05:39:23;16.80;99.90
54846;DHT22;53889;50.084;8.646;2023-10-13T05:42:19;16.80;99.90
54846;DHT22;53889;50.084;8.646;2023-10-13T05:45:05;16.90;99.90
54846;DHT22;53889;50.084;8.646;2023-10-13T05:48:03;16.90;99.90
54846;DHT22;53889;50.084;8.646;2023-10-13T05:50:38;16.80;99.90
54846;DHT22;53889;50.084;8.646;2023-10-13T05:53:43;16.90;99.90
54846;DHT22;53889;50.084;8.646;2023-10-13T05:56:28;16.90;99.90
54846;DHT22;53889;50.084;8.646;2023-10-13T05:59:12;16.90;99.90
54846;DHT22;53889;50.084;8.646;2023-10-13T06:01:57;16.90;99.90
54846;DHT22;53889;50.084;8.646;2023-10-13T06:04:41;16.90;99.90
54846;DHT22;53889;50.084;8.646;2023-10-13T06:07:26;16.80;99.90
54846;DHT22;53889;50.084;8.646;2023-10-13T06:10:10;16.90;99.90
54846;DHT22;53889;50.084;8.646;2023-10-13T06:12:54;17.00;99.90
54846;DHT22;53889;50.084;8.646;2023-10-13T06:15:38;16.90;99.90
54846;DHT22;53889;50.084;8.646;2023-10-13T06:18:23;17.10;99.90
54846;DHT22;53889;50.084;8.646;2023-10-13T06:21:04;17.10;99.90
54846;DHT22;53889;50.084;8.646;2023-10-13T06:23:45;17.20;99.90
54846;DHT22;53889;50.084;8.646;2023-10-13T06:26:29;17.20;99.90
54846;DHT22;53889;50.084;8.646;2023-10-13T06:29:14;17.30;99.90
54846;DHT22;53889;50.084;8.646;2023-10-13T06:31:45;17.30;99.90
54846;DHT22;53889;50.084;8.646;2023-10-13T06:34:13;17.30;99.90
54846;DHT22;53889;50.084;8.646;2023-10-13T06:36:41;17.40;99.90
54846;DHT22;53889;50.084;8.646;2023-10-13T06:39:12;17.30;99.90
54846;DHT22;53889;50.084;8.646;2023-10-13T06:42:00;17.30;99.90
54846;DHT22;53889;50.084;8.646;2023-10-13T06:44:28;17.40;99.90
54846;DHT22;53889;50.084;8.646;2023-10-13T06:46:58;17.50;99.90
54846;DHT22;53889;50.084;8.646;2023-10-13T06:49:27;17.60;99.90
54846;DHT22;53889;50.084;8.646;2023-10-13T06:51:55;17.70;99.90
54846;DHT22;53889;50.084;8.646;2023-10-13T06:54:26;17.80;99.90
54846;DHT22;53889;50.084;8.646;2023-10-13T06:56:54;17.90;99.90
54846;DHT22;53889;50.084;8.646;2023-10-13T06:59:21;17.90;99.90
54846;DHT22;53889;50.084;8.646;2023-10-13T07:01:52;18.00;99.90
54846;DHT22;53889;50.084;8.646;2023-10-13T07:04:19;18.00;99.90
54846;DHT22;53889;50.084;8.646;2023-10-13T07:06:48;18.10;99.90
54846;DHT22;53889;50.084;8.646;2023-10-13T07:09:16;18.10;99.90
54846;DHT22;53889;50.084;8.646;2023-10-13T07:11:58;18.10;99.90
54846;DHT22;53889;50.084;8.646;2023-10-13T07:14:26;18.20;99.90
54846;DHT22;53889;50.084;8.646;2023-10-13T07:16:57;18.20;99.90
54846;DHT22;53889;50.084;8.646;2023-10-13T07:19:24;18.30;99.90
54846;DHT22;53889;50.084;8.646;2023-10-13T07:21:54;18.30;99.90
54846;DHT22;53889;50.084;8.646;2023-10-13T07:24:25;18.30;99.90
54846;DHT22;53889;50.084;8.646;2023-10-13T07:26:53;18.30;99.90
54846;DHT22;53889;50.084;8.646;2023-10-13T07:29:29;18.20;99.90
54846;DHT22;53889;50.084;8.646;2023-10-13T07:31:56;18.30;99.90
54846;DHT22;53889;50.084;8.646;2023-10-13T07:34:24;18.30;99.90
54846;DHT22;53889;50.084;8.646;2023-10-13T07:36:52;18.20;99.90
54846;DHT22;53889;50.084;8.646;2023-10-13T07:39:21;18.30;99.90
54846;DHT22;53889;50.084;8.646;2023-10-13T07:41:49;18.50;99.90
54846;DHT22;53889;50.084;8.646;2023-10-13T07:44:20;18.70;99.90
54846;DHT22;53889;50.084;8.646;2023-10-13T07:46:51;19.20;99.90
54846;DHT22;53889;50.084;8.646;2023-10-13T07:49:28;19.70;99.90
54846;DHT22;53889;50.084;8.646;2023-10-13T07:51:58;20.00;99.90
54846;DHT22;53889;50.084;8.646;2023-10-13T07:54:27;20.30;99.90
54846;DHT22;53889;50.084;8.646;2023-10-13T07:56:54;20.40;99.90
54846;DHT22;53889;50.084;8.646;2023-10-13T07:59:21;20.50;99.90
54846;DHT22;53889;50.084;8.646;2023-10-13T08:01:49;20.70;99.90
54846;DHT22;53889;50.084;8.646;2023-10-13T08:04:38;20.80;99.90
54846;DHT22;53889;50.084;8.646;2023-10-13T08:07:04;21.50;99.90
54846;DHT22;53889;50.084;8.646;2023-10-13T08:09:40;21.30;99.90
54846;DHT22;53889;50.084;8.646;2023-10-13T08:12:16;21.10;99.90
54846;DHT22;53889;50.084;8.646;2023-10-13T08:14:46;20.80;99.90
54846;DHT22;53889;50.084;8.646;2023-10-13T08:17:13;20.70;99.90
54846;DHT22;53889;50.084;8.646;2023-10-13T08:19:40;21.10;99.90
54846;DHT22;53889;50.084;8.646;2023-10-13T08:22:11;21.20;99.90
54846;DHT22;53889;50.084;8.646;2023-10-13T08:24:52;21.00;99.90
54846;DHT22;53889;50.084;8.646;2023-10-13T08:27:24;21.20;99.90
54846;DHT22;53889;50.084;8.646;2023-10-13T08:30:00;21.20;99.90
54846;DHT22;53889;50.084;8.646;2023-10-13T08:32:44;21.00;99.90
54846;DHT22;53889;50.084;8.646;2023-10-13T08:35:20;21.10;99.90
54846;DHT22;53889;50.084;8.646;2023-10-13T08:38:00;21.30;99.90
54846;DHT22;53889;50.084;8.646;2023-10-13T08:40:31;21.60;99.90
54846;DHT22;53889;50.084;8.646;2023-10-13T08:43:24;21.80;99.90
54846;DHT22;53889;50.084;8.646;2023-10-13T08:46:06;21.80;99.90
54846;DHT22;53889;50.084;8.646;2023-10-13T08:48:36;21.60;99.90
54846;DHT22;53889;50.084;8.646;2023-10-13T08:51:03;21.50;99.90
54846;DHT22;53889;50.084;8.646;2023-10-13T08:54:00;21.30;99.90
54846;DHT22;53889;50.084;8.646;2023-10-13T08:56:35;21.50;99.90
54846;DHT22;53889;50.084;8.646;2023-10-13T08:59:12;22.10;99.90
54846;DHT22;53889;50.084;8.646;2023-10-13T09:01:47;22.80;99.80
54846;DHT22;53889;50.084;8.646;2023-10-13T09:04:25;23.10;99.00
54846;DHT22;53889;50.084;8.646;2023-10-13T09:07:00;22.80;99.00
54846;DHT22;53889;50.084;8.646;2023-10-13T09:09:44;22.40;98.90
54846;DHT22;53889;50.084;8.646;2023-10-13T09:12:27;22.00;99.20
54846;DHT22;53889;50.084;8.646;2023-10-13T09:15:28;21.70;99.90
54846;DHT22;53889;50.084;8.646;2023-10-13T09:18:23;21.40;99.80
54846;DHT22;53889;50.084;8.646;2023-10-13T09:21:07;21.30;99.90
54846;DHT22;53889;50.084;8.646;2023-10-13T09:23:55;21.30;99.90
54846;DHT22;53889;50.084;8.646;2023-10-13T09:26:42;21.40;99.80
54846;DHT22;53889;50.084;8.646;2023-10-13T09:29:16;21.50;99.80
54846;DHT22;53889;50.084;8.646;2023-10-13T09:31:46;21.70;99.90
54846;DHT22;53889;50.084;8.646;2023-10-13T09:34:19;21.80;99.40
54846;DHT22;53889;50.084;8.646;2023-10-13T09:36:47;22.00;99.00
54846;DHT22;53889;50.084;8.646;2023-10-13T09:39:14;22.20;98.60
54846;DHT22;53889;50.084;8.646;2023-10-13T09:41:55;22.50;97.90
54846;DHT22;53889;50.084;8.646;2023-10-13T09:44:22;22.60;97.20
54846;DHT22;53889;50.084;8.646;2023-10-13T09:46:52;22.40;97.10
54846;DHT22;53889;50.084;8.646;2023-10-13T09:49:22;22.40;97.40
54846;DHT22;53889;50.084;8.646;2023-10-13T09:52:13;22.40;97.30
54846;DHT22;53889;50.084;8.646;2023-10-13T09:54:49;22.50;97.30
54846;DHT22;53889;50.084;8.646;2023-10-13T09:57:27;22.90;96.90
54846;DHT22;53889;50.084;8.646;2023-10-13T10:00:02;23.40;96.10
54846;DHT22;53889;50.084;8.646;2023-10-13T10:02:40;23.90;95.60
54846;DHT22;53889;50.084;8.646;2023-10-13T10:05:09;24.50;94.80
54846;DHT22;53889;50.084;8.646;2023-10-13T10:07:54;24.80;94.30
54846;DHT22;53889;50.084;8.646;2023-10-13T10:10:22;25.40;93.50
54846;DHT22;53889;50.084;8.646;2023-10-13T10:12:53;25.80;92.80
54846;DHT22;53889;50.084;8.646;2023-10-13T10:15:28;26.00;92.30
54846;DHT22;53889;50.084;8.646;2023-10-13T10:17:59;26.30;91.90
54846;DHT22;53889;50.084;8.646;2023-10-13T10:20:30;26.30;91.60
54846;DHT22;53889;50.084;8.646;2023-10-13T10:23:05;26.10;91.70
54846;DHT22;53889;50.084;8.646;2023-10-13T10:25:34;26.00;92.00
54846;DHT22;53889;50.084;8.646;2023-10-13T10:28:02;25.60;92.00
54846;DHT22;53889;50.084;8.646;2023-10-13T10:30:35;25.60;92.30
54846;DHT22;53889;50.084;8.646;2023-10-13T10:33:04;25.40;92.70
54846;DHT22;53889;50.084;8.646;2023-10-13T10:35:37;25.20;92.60
54846;DHT22;53889;50.084;8.646;2023-10-13T10:38:08;24.90;92.50
54846;DHT22;53889;50.084;8.646;2023-10-13T10:40:53;25.20;92.80
54846;DHT22;53889;50.084;8.646;2023-10-13T10:43:25;25.30;91.90
54846;DHT22;53889;50.084;8.646;2023-10-13T10:45:55;25.40;92.20
54846;DHT22;53889;50.084;8.646;2023-10-13T10:48:26;26.20;91.80
54846;DHT22;53889;50.084;8.646;2023-10-13T10:50:57;27.40;90.00
54846;DHT22;53889;50.084;8.646;2023-10-13T10:53:33;27.70;88.90
54846;DHT22;53889;50.084;8.646;2023-10-13T10:56:09;28.40;88.00
54846;DHT22;53889;50.084;8.646;2023-10-13T10:58:45;28.50;85.80
54846;DHT22;53889;50.084;8.646;2023-10-13T11:01:13;27.60;87.70
54846;DHT22;53889;50.084;8.646;2023-10-13T11:03:53;27.20;89.00
54846;DHT22;53889;50.084;8.646;2023-10-13T11:06:23;27.70;87.80
54846;DHT22;53889;50.084;8.646;2023-10-13T11:09:01;28.30;86.60
54846;DHT22;53889;50.084;8.646;2023-10-13T11:11:30;28.30;86.50
54846;DHT22;53889;50.084;8.646;2023-10-13T11:14:01;28.30;86.20
54846;DHT22;53889;50.084;8.646;2023-10-13T11:16:47;28.80;85.70
54846;DHT22;53889;50.084;8.646;2023-10-13T11:19:19;29.30;84.60
54846;DHT22;53889;50.084;8.646;2023-10-13T11:21:51;29.70;83.20
54846;DHT22;53889;50.084;8.646;2023-10-13T11:24:19;29.90;82.20
54846;DHT22;53889;50.084;8.646;2023-10-13T11:26:47;29.70;82.20
54846;DHT22;53889;50.084;8.646;2023-10-13T11:29:18;29.90;81.80
54846;DHT22;53889;50.084;8.646;2023-10-13T11:31:48;29.80;81.30
54846;DHT22;53889;50.084;8.646;2023-10-13T11:34:20;29.50;81.70
54846;DHT22;53889;50.084;8.646;2023-10-13T11:36:47;29.60;81.70
54846;DHT22;53889;50.084;8.646;2023-10-13T11:39:13;29.80;81.00
54846;DHT22;53889;50.084;8.646;2023-10-13T11:41:58;30.00;81.30
54846;DHT22;53889;50.084;8.646;2023-10-13T11:44:25;30.40;80.20
54846;DHT22;53889;50.084;8.646;2023-10-13T11:46:57;30.30;80.30
54846;DHT22;53889;50.084;8.646;2023-10-13T11:49:55;30.30;80.60
54846;DHT22;53889;50.084;8.646;2023-10-13T11:52:24;30.00;80.60
54846;DHT22;53889;50.084;8.646;2023-10-13T11:54:53;30.30;80.50
54846;DHT22;53889;50.084;8.646;2023-10-13T11:57:20;30.50;79.80
54846;DHT22;53889;50.084;8.646;2023-10-13T11:59:47;29.90;79.90
54846;DHT22;53889;50.084;8.646;2023-10-13T12:02:23;29.30;81.10
54846;DHT22;53889;50.084;8.646;2023-10-13T12:05:07;28.60;82.20
54846;DHT22;53889;50.084;8.646;2023-10-13T12:07:42;27.80;84.00
54846;DHT22;53889;50.084;8.646;2023-10-13T12:10:13;27.10;85.70
54846;DHT22;53889;50.084;8.646;2023-10-13T12:12:58;27.00;86.60
54846;DHT22;53889;50.084;8.646;2023-10-13T12:15:32;26.80;87.50
54846;DHT22;53889;50.084;8.646;2023-10-13T12:18:15;26.70;87.90
54846;DHT22;53889;50.084;8.646;2023-10-13T12:20:42;26.70;87.40
54846;DHT22;53889;50.084;8.646;2023-10-13T12:23:11;26.80;86.90
54846;DHT22;53889;50.084;8.646;2023-10-13T12:25:43;26.90;87.30
54846;DHT22;53889;50.084;8.646;2023-10-13T12:28:25;26.90;87.40
54846;DHT22;53889;50.084;8.646;2023-10-13T12:30:54;26.70;87.30
54846;DHT22;53889;50.084;8.646;2023-10-13T12:33:24;26.30;87.90
54846;DHT22;53889;50.084;8.646;2023-10-13T12:35:58;26.00;89.20
54846;DHT22;53889;50.084;8.646;2023-10-13T12:38:33;26.10;89.50
54846;DHT22;53889;50.084;8.646;2023-10-13T12:41:37;26.20;89.40
54846;DHT22;53889;50.084;8.646;2023-10-13T12:44:22;26.20;89.70
54846;DHT22;53889;50.084;8.646;2023-10-13T12:47:06;26.20;89.90
54846;DHT22;53889;50.084;8.646;2023-10-13T12:49:52;26.50;90.10
54846;DHT22;53889;50.084;8.646;2023-10-13T12:52:23;26.40;88.70
54846;DHT22;53889;50.084;8.646;2023-10-13T12:54:52;26.40;87.80
54846;DHT22;53889;50.084;8.646;2023-10-13T12:57:32;26.50;87.70
54846;DHT22;53889;50.084;8.646;2023-10-13T12:59:59;26.70;87.20
54846;DHT22;53889;50.084;8.646;2023-10-13T13:02:27;26.90;87.10
54846;DHT22;53889;50.084;8.646;2023-10-13T13:04:56;27.20;86.50
54846;DHT22;53889;50.084;8.646;2023-10-13T13:07:31;27.30;86.80
54846;DHT22;53889;50.084;8.646;2023-10-13T13:10:09;26.70;86.90
54846;DHT22;53889;50.084;8.646;2023-10-13T13:12:37;26.40;87.90
54846;DHT22;53889;50.084;8.646;2023-10-13T13:15:04;26.50;87.80
54846;DHT22;53889;50.084;8.646;2023-10-13T13:17:34;27.10;86.60
54846;DHT22;53889;50.084;8.646;2023-10-13T13:20:03;27.50;84.60
54846;DHT22;53889;50.084;8.646;2023-10-13T13:22:36;28.00;85.30
54846;DHT22;53889;50.084;8.646;2023-10-13T13:25:04;28.40;84.30
54846;DHT22;53889;50.084;8.646;2023-10-13T13:27:33;28.90;81.80
54846;DHT22;53889;50.084;8.646;2023-10-13T13:30:02;29.00;81.40
54846;DHT22;53889;50.084;8.646;2023-10-13T13:32:37;28.80;82.10
54846;DHT22;53889;50.084;8.646;2023-10-13T13:35:06;28.40;81.90
54846;DHT22;53889;50.084;8.646;2023-10-13T13:37:39;28.10;82.70
54846;DHT22;53889;50.084;8.646;2023-10-13T13:40:09;28.00;83.80
54846;DHT22;53889;50.084;8.646;2023-10-13T13:42:40;28.20;84.10
54846;DHT22;53889;50.084;8.646;2023-10-13T13:45:12;28.20;82.70
54846;DHT22;53889;50.084;8.646;2023-10-13T13:47:37;28.20;82.80
54846;DHT22;53889;50.084;8.646;2023-10-13T13:50:06;28.20;82.40
54846;DHT22;53889;50.084;8.646;2023-10-13T13:52:40;28.10;82.60
54846;DHT22;53889;50.084;8.646;2023-10-13T13:55:11;27.90;82.20
54846;DHT22;53889;50.084;8.646;2023-10-13T13:57:42;27.90;82.40
54846;DHT22;53889;50.084;8.646;2023-10-13T14:00:10;27.70;81.70
54846;DHT22;53889;50.084;8.646;2023-10-13T14:02:42;27.50;81.60
54846;DHT22;53889;50.084;8.646;2023-10-13T14:05:14;27.50;81.60
54846;DHT22;53889;50.084;8.646;2023-10-13T14:07:42;27.40;81.30
54846;DHT22;53889;50.084;8.646;2023-10-13T14:10:17;27.50;81.20
54846;DHT22;53889;50.084;8.646;2023-10-13T14:13:02;27.20;79.20
54846;DHT22;53889;50.084;8.646;2023-10-13T14:15:39;27.00;78.70
54846;DHT22;53889;50.084;8.646;2023-10-13T14:18:09;26.90;79.30
54846;DHT22;53889;50.084;8.646;2023-10-13T14:20:41;26.80;79.80
54846;DHT22;53889;50.084;8.646;2023-10-13T14:23:08;26.80;79.30
54846;DHT22;53889;50.084;8.646;2023-10-13T14:25:37;26.80;79.20
54846;DHT22;53889;50.084;8.646;2023-10-13T14:28:05;26.80;79.00
54846;DHT22;53889;50.084;8.646;2023-10-13T14:30:32;26.80;78.90
54846;DHT22;53889;50.084;8.646;2023-10-13T14:32:59;26.70;78.60
54846;DHT22;53889;50.084;8.646;2023-10-13T14:35:26;26.70;77.90
54846;DHT22;53889;50.084;8.646;2023-10-13T14:37:54;26.70;78.20
54846;DHT22;53889;50.084;8.646;2023-10-13T14:40:21;26.80;78.50
54846;DHT22;53889;50.084;8.646;2023-10-13T14:42:48;26.80;78.60
54846;DHT22;53889;50.084;8.646;2023-10-13T14:45:15;26.70;78.00
54846;DHT22;53889;50.084;8.646;2023-10-13T14:47:44;26.60;77.90
54846;DHT22;53889;50.084;8.646;2023-10-13T14:50:12;26.60;78.50
54846;DHT22;53889;50.084;8.646;2023-10-13T14:52:45;26.60;78.50
54846;DHT22;53889;50.084;8.646;2023-10-13T14:55:14;26.70;78.40
54846;DHT22;53889;50.084;8.646;2023-10-13T14:57:47;26.80;78.30
54846;DHT22;53889;50.084;8.646;2023-10-13T15:00:15;26.70;78.30
54846;DHT22;53889;50.084;8.646;2023-10-13T15:02:50;26.70;78.60
54846;DHT22;53889;50.084;8.646;2023-10-13T15:05:17;26.60;79.10
54846;DHT22;53889;50.084;8.646;2023-10-13T15:07:44;26.50;77.70
54846;DHT22;53889;50.084;8.646;2023-10-13T15:10:13;26.40;78.20
54846;DHT22;53889;50.084;8.646;2023-10-13T15:12:41;26.40;77.80
54846;DHT22;53889;50.084;8.646;2023-10-13T15:15:08;26.40;78.20
54846;DHT22;53889;50.084;8.646;2023-10-13T15:17:39;26.20;78.10
54846;DHT22;53889;50.084;8.646;2023-10-13T15:20:06;26.30;78.10
54846;DHT22;53889;50.084;8.646;2023-10-13T15:22:35;26.20;77.70
54846;DHT22;53889;50.084;8.646;2023-10-13T15:25:04;26.20;77.70
54846;DHT22;53889;50.084;8.646;2023-10-13T15:27:44;26.20;78.70
54846;DHT22;53889;50.084;8.646;2023-10-13T15:30:16;26.20;78.30
54846;DHT22;53889;50.084;8.646;2023-10-13T15:32:49;26.20;77.80
54846;DHT22;53889;50.084;8.646;2023-10-13T15:35:17;26.20;77.40
54846;DHT22;53889;50.084;8.646;2023-10-13T15:37:43;26.20;77.30
54846;DHT22;53889;50.084;8.646;2023-10-13T15:40:13;26.10;76.80
54846;DHT22;53889;50.084;8.646;2023-10-13T15:42:41;26.10;77.30
54846;DHT22;53889;50.084;8.646;2023-10-13T15:45:09;26.00;77.50
54846;DHT22;53889;50.084;8.646;2023-10-13T15:47:43;26.00;77.40
54846;DHT22;53889;50.084;8.646;2023-10-13T15:50:12;26.00;77.90
54846;DHT22;53889;50.084;8.646;2023-10-13T15:52:41;26.00;78.40
54846;DHT22;53889;50.084;8.646;2023-10-13T15:55:12;26.00;78.20
54846;DHT22;53889;50.084;8.646;2023-10-13T15:57:39;26.00;78.30
54846;DHT22;53889;50.084;8.646;2023-10-13T16:00:12;26.00;77.30
54846;DHT22;53889;50.084;8.646;2023-10-13T16:02:52;25.90;77.10
54846;DHT22;53889;50.084;8.646;2023-10-13T16:05:20;25.80;77.40
54846;DHT22;53889;50.084;8.646;2023-10-13T16:07:50;25.80;77.70
54846;DHT22;53889;50.084;8.646;2023-10-13T16:10:17;25.80;77.70